createdAt,value
2022-10-30T00:02:12.769Z,16.34
2022-10-30T00:04:39.278Z,16.33
2022-10-30T00:07:05.691Z,16.31
2022-10-30T00:09:32.060Z,16.33
2022-10-30T00:11:58.547Z,16.32
2022-10-30T00:14:24.966Z,16.27
2022-10-30T00:16:51.347Z,16.27
2022-10-30T00:19:17.780Z,16.26
2022-10-30T00:21:44.180Z,16.25
2022-10-30T00:24:11.027Z,16.24
2022-10-30T00:26:37.417Z,16.23
2022-10-30T00:29:03.818Z,16.25
2022-10-30T00:31:30.232Z,16.22
2022-10-30T00:33:56.659Z,16.20
2022-10-30T00:36:23.113Z,16.21
2022-10-30T00:38:49.821Z,16.18
2022-10-30T00:41:20.907Z,16.15
2022-10-30T00:43:47.630Z,16.14
2022-10-30T00:46:32.090Z,16.12
2022-10-30T00:49:18.709Z,16.12
2022-10-30T00:51:48.366Z,16.10
2022-10-30T00:54:16.290Z,16.09
2022-10-30T00:56:43.151Z,16.04
2022-10-30T00:59:16.005Z,16.03
2022-10-30T01:01:43.394Z,16.04
2022-10-30T01:04:10.631Z,15.99
2022-10-30T01:06:38.784Z,15.93
2022-10-30T01:09:05.708Z,15.91
2022-10-30T01:11:32.528Z,15.87
2022-10-30T01:14:01.491Z,15.94
2022-10-30T01:16:36.872Z,15.95
2022-10-30T01:19:15.319Z,15.95
2022-10-30T01:21:42.330Z,15.89
2022-10-30T01:24:25.283Z,15.92
2022-10-30T01:27:00.872Z,15.91
2022-10-30T01:29:41.072Z,15.88
2022-10-30T01:32:07.571Z,15.86
2022-10-30T01:34:51.285Z,15.83
2022-10-30T01:37:25.034Z,15.83
2022-10-30T01:39:51.583Z,15.79
2022-10-30T01:42:37.467Z,15.80
2022-10-30T01:45:04.928Z,15.76
2022-10-30T01:47:40.559Z,15.77
2022-10-30T01:50:30.374Z,15.76
2022-10-30T01:53:19.928Z,15.73
2022-10-30T01:56:05.221Z,15.73
2022-10-30T01:58:48.002Z,15.70
2022-10-30T02:01:15.049Z,15.67
2022-10-30T02:03:41.658Z,15.68
2022-10-30T02:06:08.151Z,15.66
2022-10-30T02:08:34.634Z,15.65
2022-10-30T02:11:01.595Z,15.60
2022-10-30T02:13:36.472Z,15.64
2022-10-30T02:16:02.983Z,15.58
2022-10-30T02:18:30.247Z,15.56
2022-10-30T02:20:56.868Z,15.56
2022-10-30T02:23:23.323Z,15.56
2022-10-30T02:25:50.434Z,15.52
2022-10-30T02:28:17.033Z,15.52
2022-10-30T02:30:46.479Z,15.49
2022-10-30T02:33:12.994Z,15.48
2022-10-30T02:35:39.531Z,15.44
2022-10-30T02:38:06.422Z,15.43
2022-10-30T02:40:32.875Z,15.42
2022-10-30T02:42:59.626Z,15.42
2022-10-30T02:45:26.005Z,15.41
2022-10-30T02:47:52.537Z,15.39
2022-10-30T02:50:19.238Z,15.38
2022-10-30T02:52:45.675Z,15.35
2022-10-30T02:55:12.119Z,15.34
2022-10-30T02:57:39.183Z,15.33
2022-10-30T03:00:06.275Z,15.31
2022-10-30T03:02:32.943Z,15.29
2022-10-30T03:05:00.215Z,15.30
2022-10-30T03:07:26.729Z,15.31
2022-10-30T03:09:54.378Z,15.29
2022-10-30T03:12:21.163Z,15.26
2022-10-30T03:14:47.503Z,15.22
2022-10-30T03:17:13.978Z,15.21
2022-10-30T03:19:43.305Z,15.19
2022-10-30T03:22:09.958Z,15.19
2022-10-30T03:24:38.201Z,15.19
2022-10-30T03:27:04.904Z,15.17
2022-10-30T03:29:31.399Z,15.15
2022-10-30T03:31:57.753Z,15.14
2022-10-30T03:34:28.554Z,15.12
2022-10-30T03:36:55.030Z,15.10
2022-10-30T03:39:22.334Z,15.10
2022-10-30T03:41:48.879Z,15.06
2022-10-30T03:44:15.278Z,15.05
2022-10-30T03:46:41.681Z,15.04
2022-10-30T03:49:27.503Z,15.02
2022-10-30T03:51:54.969Z,15.00
2022-10-30T03:54:23.125Z,14.97
2022-10-30T03:56:49.508Z,14.93
2022-10-30T03:59:16.827Z,14.94
2022-10-30T04:01:52.736Z,14.91
2022-10-30T04:04:19.296Z,14.89
2022-10-30T04:06:47.441Z,14.89
2022-10-30T04:09:15.011Z,14.87
2022-10-30T04:11:43.828Z,14.85
2022-10-30T04:14:10.199Z,14.82
2022-10-30T04:16:36.897Z,14.81
2022-10-30T04:19:03.293Z,14.79
2022-10-30T04:21:29.778Z,14.77
2022-10-30T04:23:57.630Z,14.74
2022-10-30T04:26:27.010Z,14.72
2022-10-30T04:28:54.049Z,14.70
2022-10-30T04:31:20.564Z,14.71
2022-10-30T04:33:46.908Z,14.70
2022-10-30T04:36:13.271Z,14.66
2022-10-30T04:38:39.719Z,14.66
2022-10-30T04:41:09.871Z,14.66
2022-10-30T04:43:53.294Z,14.59
2022-10-30T04:46:19.646Z,14.59
2022-10-30T04:48:46.238Z,14.58
2022-10-30T04:51:13.035Z,14.56
2022-10-30T04:53:39.451Z,14.55
2022-10-30T04:56:08.833Z,14.53
2022-10-30T04:58:37.057Z,14.51
2022-10-30T05:01:05.914Z,14.51
2022-10-30T05:03:33.533Z,14.47
2022-10-30T05:06:02.390Z,14.46
2022-10-30T05:08:29.546Z,14.45
2022-10-30T05:10:59.361Z,14.45
2022-10-30T05:13:25.843Z,14.40
2022-10-30T05:15:53.930Z,14.40
2022-10-30T05:18:20.927Z,14.38
2022-10-30T05:20:47.683Z,14.37
2022-10-30T05:23:14.086Z,14.38
2022-10-30T05:25:41.370Z,14.34
2022-10-30T05:28:10.693Z,14.32
2022-10-30T05:30:43.925Z,14.29
2022-10-30T05:33:23.395Z,14.26
2022-10-30T05:35:50.128Z,14.27
2022-10-30T05:38:16.706Z,14.28
2022-10-30T05:40:45.858Z,14.21
2022-10-30T05:43:12.813Z,14.20
2022-10-30T05:45:40.142Z,14.20
2022-10-30T05:48:07.468Z,14.22
2022-10-30T05:50:41.163Z,14.21
2022-10-30T05:53:28.206Z,14.16
2022-10-30T05:55:56.811Z,14.16
2022-10-30T05:58:23.977Z,14.16
2022-10-30T06:00:51.243Z,14.14
2022-10-30T06:03:29.346Z,14.13
2022-10-30T06:05:56.084Z,14.14
2022-10-30T06:08:22.835Z,14.10
2022-10-30T06:10:53.737Z,14.09
2022-10-30T06:13:27.013Z,14.09
2022-10-30T06:16:03.255Z,14.07
2022-10-30T06:18:49.057Z,14.05
2022-10-30T06:21:15.714Z,14.03
2022-10-30T06:23:55.866Z,13.99
2022-10-30T06:26:48.138Z,13.99
2022-10-30T06:29:15.491Z,14.02
2022-10-30T06:31:42.248Z,14.00
2022-10-30T06:34:08.603Z,13.97
2022-10-30T06:36:37.877Z,13.93
2022-10-30T06:39:05.008Z,13.94
2022-10-30T06:41:52.933Z,13.91
2022-10-30T06:44:37.832Z,13.93
2022-10-30T06:47:04.218Z,13.92
2022-10-30T06:49:30.685Z,13.92
2022-10-30T06:51:58.163Z,13.91
2022-10-30T06:54:24.963Z,13.89
2022-10-30T06:57:00.555Z,13.90
2022-10-30T06:59:42.174Z,13.90
2022-10-30T07:02:34.937Z,13.89
2022-10-30T07:05:05.828Z,13.91
2022-10-30T07:07:32.500Z,13.92
2022-10-30T07:09:59.491Z,13.89
2022-10-30T07:12:52.873Z,13.89
2022-10-30T07:15:39.229Z,13.88
2022-10-30T07:18:17.990Z,13.85
2022-10-30T07:20:45.255Z,13.90
2022-10-30T07:23:12.020Z,13.90
2022-10-30T07:25:38.516Z,13.88
2022-10-30T07:28:12.758Z,13.91
2022-10-30T07:31:00.804Z,13.90
2022-10-30T07:33:47.424Z,13.88
2022-10-30T07:36:34.223Z,13.93
2022-10-30T07:39:23.204Z,13.95
2022-10-30T07:42:15.499Z,13.90
2022-10-30T07:45:00.444Z,13.93
2022-10-30T07:47:39.052Z,13.92
2022-10-30T07:50:23.249Z,13.95
2022-10-30T07:52:49.634Z,13.98
2022-10-30T07:55:19.570Z,14.04
2022-10-30T07:57:46.014Z,14.07
2022-10-30T08:00:32.646Z,14.11
2022-10-30T08:03:11.020Z,14.15
2022-10-30T08:05:47.852Z,14.20
2022-10-30T08:08:20.606Z,14.26
2022-10-30T08:10:55.232Z,14.32
2022-10-30T08:13:21.839Z,14.40
2022-10-30T08:15:50.226Z,14.43
2022-10-30T08:18:16.744Z,14.59
2022-10-30T08:20:45.829Z,14.65
2022-10-30T08:23:12.617Z,14.65
2022-10-30T08:25:39.037Z,14.66
2022-10-30T08:28:06.470Z,14.70
2022-10-30T08:30:37.409Z,14.75
2022-10-30T08:33:06.310Z,14.78
2022-10-30T08:35:54.297Z,14.84
2022-10-30T08:38:20.725Z,14.92
2022-10-30T08:40:56.453Z,14.90
2022-10-30T08:43:25.162Z,14.95
2022-10-30T08:45:51.653Z,14.96
2022-10-30T08:48:20.736Z,15.10
2022-10-30T08:50:47.108Z,15.19
2022-10-30T08:53:20.424Z,15.21
2022-10-30T08:55:48.212Z,15.38
2022-10-30T08:58:25.145Z,15.48
2022-10-30T09:00:53.121Z,15.55
2022-10-30T09:03:54.745Z,15.78
2022-10-30T09:06:50.268Z,15.75
2022-10-30T09:09:40.335Z,15.81
2022-10-30T09:12:07.435Z,15.88
2022-10-30T09:14:40.593Z,15.97
2022-10-30T09:17:08.858Z,16.03
2022-10-30T09:19:38.003Z,16.02
2022-10-30T09:22:05.199Z,16.11
2022-10-30T09:24:33.240Z,16.29
2022-10-30T09:27:02.391Z,16.39
2022-10-30T09:29:33.806Z,16.36
2022-10-30T09:32:10.449Z,16.31
2022-10-30T09:34:59.953Z,16.44
2022-10-30T09:37:34.232Z,16.43
2022-10-30T09:40:07.576Z,16.53
2022-10-30T09:42:37.982Z,16.67
2022-10-30T09:45:29.709Z,16.63
2022-10-30T09:48:16.595Z,16.80
2022-10-30T09:51:10.365Z,16.88
2022-10-30T09:53:57.469Z,17.00
2022-10-30T09:56:38.436Z,17.04
2022-10-30T09:59:25.486Z,17.09
2022-10-30T10:02:15.737Z,17.38
2022-10-30T10:04:44.558Z,17.28
2022-10-30T10:07:21.371Z,17.29
2022-10-30T10:10:13.114Z,17.34
2022-10-30T10:13:01.645Z,17.39
2022-10-30T10:15:46.357Z,17.54
2022-10-30T10:18:17.482Z,17.64
2022-10-30T10:20:45.358Z,17.73
2022-10-30T10:23:18.366Z,17.72
2022-10-30T10:25:51.024Z,17.72
2022-10-30T10:28:24.717Z,17.72
2022-10-30T10:30:51.085Z,17.80
2022-10-30T10:33:29.742Z,17.87
2022-10-30T10:36:10.985Z,18.00
2022-10-30T10:38:56.174Z,18.05
2022-10-30T10:41:36.461Z,18.11
2022-10-30T10:44:02.814Z,18.25
2022-10-30T10:46:46.545Z,18.18
2022-10-30T10:49:22.126Z,18.25
2022-10-30T10:51:54.116Z,18.31
2022-10-30T10:54:25.857Z,18.37
2022-10-30T10:56:52.353Z,18.30
2022-10-30T10:59:21.229Z,18.22
2022-10-30T11:02:00.355Z,18.33
2022-10-30T11:04:36.674Z,18.34
2022-10-30T11:07:10.549Z,18.34
2022-10-30T11:09:37.066Z,18.34
2022-10-30T11:12:04.098Z,18.42
2022-10-30T11:14:30.555Z,18.56
2022-10-30T11:17:15.287Z,18.58
2022-10-30T11:19:41.795Z,18.68
2022-10-30T11:22:27.012Z,18.73
2022-10-30T11:40:26.638Z,18.94
2022-10-30T11:43:04.196Z,19.03
2022-10-30T11:45:39.919Z,18.88
2022-10-30T11:48:13.593Z,18.97
2022-10-30T11:50:45.874Z,19.01
2022-10-30T11:53:17.311Z,19.03
2022-10-30T11:55:48.249Z,19.09
2022-10-30T11:58:24.205Z,19.02
2022-10-30T12:00:59.882Z,19.05
2022-10-30T12:03:28.230Z,19.11
2022-10-30T12:06:06.555Z,19.14
2022-10-30T12:08:32.952Z,19.22
2022-10-30T12:10:59.340Z,19.25
2022-10-30T12:13:26.529Z,19.32
2022-10-30T12:16:05.105Z,19.32
2022-10-30T12:18:32.697Z,19.25
2022-10-30T12:20:59.557Z,19.21
2022-10-30T12:23:27.940Z,19.34
2022-10-30T12:26:14.671Z,19.33
2022-10-30T12:28:48.749Z,19.48
2022-10-30T12:31:15.153Z,19.45
2022-10-30T12:33:41.504Z,19.51
2022-10-30T12:36:16.592Z,19.62
2022-10-30T12:38:45.715Z,19.63
2022-10-30T12:41:23.643Z,19.60
2022-10-30T12:44:02.722Z,19.70
2022-10-30T12:46:36.871Z,19.59
2022-10-30T12:49:09.527Z,19.78
2022-10-30T12:51:39.944Z,19.81
2022-10-30T12:54:18.078Z,19.89
2022-10-30T12:56:46.101Z,19.89
2022-10-30T12:59:27.136Z,19.97
2022-10-30T13:01:59.830Z,19.91
2022-10-30T13:04:32.883Z,20.01
2022-10-30T13:07:13.791Z,19.94
2022-10-30T13:09:58.923Z,19.96
2022-10-30T13:12:29.070Z,19.92
2022-10-30T13:15:00.873Z,19.75
2022-10-30T13:17:28.707Z,19.77
2022-10-30T13:19:55.209Z,19.73
2022-10-30T13:22:44.852Z,19.89
2022-10-30T13:25:24.490Z,19.88
2022-10-30T13:27:54.800Z,19.89
2022-10-30T13:30:22.008Z,19.81
2022-10-30T13:33:01.121Z,19.83
2022-10-30T13:35:35.182Z,19.77
2022-10-30T13:38:16.013Z,19.78
2022-10-30T13:40:42.393Z,19.83
2022-10-30T13:43:15.730Z,19.91
2022-10-30T13:45:42.211Z,19.91
2022-10-30T13:48:21.058Z,20.00
2022-10-30T13:50:47.456Z,20.00
2022-10-30T13:53:18.444Z,20.01
2022-10-30T13:55:45.762Z,19.93
2022-10-30T13:58:14.958Z,19.96
2022-10-30T14:00:44.325Z,19.94
2022-10-30T14:03:10.753Z,20.02
2022-10-30T14:05:47.989Z,20.05
2022-10-30T14:08:29.336Z,20.07
2022-10-30T14:11:00.810Z,20.09
2022-10-30T14:13:46.439Z,20.11
2022-10-30T14:16:31.348Z,20.06
2022-10-30T14:19:11.211Z,20.09
2022-10-30T14:21:37.578Z,20.06
2022-10-30T14:24:13.157Z,19.94
2022-10-30T14:26:42.777Z,19.95
2022-10-30T14:29:28.063Z,19.88
2022-10-30T14:31:54.525Z,19.91
2022-10-30T14:34:39.644Z,20.00
2022-10-30T14:37:06.004Z,19.98
2022-10-30T14:39:38.459Z,19.87
2022-10-30T14:42:07.850Z,19.77
2022-10-30T14:44:52.577Z,19.75
2022-10-30T14:47:37.632Z,19.69
2022-10-30T14:50:07.167Z,19.63
2022-10-30T14:52:33.663Z,19.60
2022-10-30T14:55:18.808Z,19.52
2022-10-30T14:57:47.668Z,19.45
2022-10-30T15:00:23.162Z,19.40
2022-10-30T15:02:49.622Z,19.36
2022-10-30T15:05:16.053Z,19.34
2022-10-30T15:07:48.349Z,19.30
2022-10-30T15:10:29.984Z,19.29
2022-10-30T15:12:58.294Z,19.25
2022-10-30T15:15:27.736Z,19.21
2022-10-30T15:17:55.741Z,19.19
2022-10-30T15:20:26.825Z,19.16
2022-10-30T15:22:57.977Z,19.05
2022-10-30T15:25:26.793Z,19.08
2022-10-30T15:27:54.813Z,19.04
2022-10-30T15:30:22.421Z,18.98
2022-10-30T15:32:48.838Z,18.97
2022-10-30T15:35:20.141Z,18.95
2022-10-30T15:38:06.311Z,18.90
2022-10-30T15:40:38.902Z,18.88
2022-10-30T15:43:06.750Z,18.85
2022-10-30T15:45:37.310Z,18.81
2022-10-30T15:48:06.730Z,18.77
2022-10-30T15:50:33.845Z,18.73
2022-10-30T15:53:00.706Z,18.67
2022-10-30T15:55:31.518Z,18.66
2022-10-30T15:58:04.227Z,18.63
2022-10-30T16:00:33.226Z,18.63
2022-10-30T16:03:00.896Z,18.58
2022-10-30T16:05:28.154Z,18.55
2022-10-30T16:07:55.705Z,18.52
2022-10-30T16:10:22.770Z,18.47
2022-10-30T16:12:49.262Z,18.42
2022-10-30T16:15:22.348Z,18.39
2022-10-30T16:17:53.053Z,18.34
2022-10-30T16:20:22.447Z,18.30
2022-10-30T16:22:48.840Z,18.24
2022-10-30T16:25:15.823Z,18.18
2022-10-30T16:27:45.816Z,18.12
2022-10-30T16:30:16.153Z,18.08
2022-10-30T16:32:44.863Z,18.03
2022-10-30T16:35:11.693Z,18.00
2022-10-30T16:37:39.293Z,17.97
2022-10-30T16:40:16.327Z,17.92
2022-10-30T16:42:46.618Z,17.88
2022-10-30T16:45:12.957Z,17.84
2022-10-30T16:47:40.636Z,17.83
2022-10-30T16:50:07.356Z,17.80
2022-10-30T16:52:37.648Z,17.76
2022-10-30T16:55:05.747Z,17.72
2022-10-30T16:57:43.095Z,17.70
2022-10-30T17:00:18.606Z,17.63
2022-10-30T17:02:46.690Z,17.59
2022-10-30T17:05:19.272Z,17.53
2022-10-30T17:07:55.000Z,17.48
2022-10-30T17:10:29.492Z,17.43
2022-10-30T17:13:15.853Z,17.39
2022-10-30T17:15:42.355Z,17.34
2022-10-30T17:18:11.125Z,17.29
2022-10-30T17:20:37.772Z,17.25
2022-10-30T17:23:05.609Z,17.17
2022-10-30T17:25:39.164Z,17.14
2022-10-30T17:28:05.933Z,17.09
2022-10-30T17:30:35.320Z,17.02
2022-10-30T17:33:03.542Z,16.95
2022-10-30T17:35:30.200Z,16.82
2022-10-30T17:37:59.750Z,16.89
2022-10-30T17:40:29.323Z,16.88
2022-10-30T17:42:55.717Z,16.83
2022-10-30T17:45:22.387Z,16.80
2022-10-30T17:47:48.760Z,16.76
2022-10-30T17:50:15.148Z,16.75
2022-10-30T17:52:41.575Z,16.72
2022-10-30T17:55:18.758Z,16.71
2022-10-30T17:57:45.141Z,16.67
2022-10-30T18:00:11.713Z,16.66
2022-10-30T18:02:38.223Z,16.64
2022-10-30T18:05:09.716Z,16.61
2022-10-30T18:07:36.175Z,16.58
2022-10-30T18:10:02.667Z,16.54
2022-10-30T18:12:29.068Z,16.52
2022-10-30T18:14:55.552Z,16.47
2022-10-30T18:17:21.891Z,16.45
2022-10-30T18:19:48.323Z,16.44
2022-10-30T18:22:14.670Z,16.44
2022-10-30T18:24:41.403Z,16.42
2022-10-30T18:27:07.770Z,16.39
2022-10-30T18:29:34.135Z,16.37
2022-10-30T18:32:02.405Z,16.35
2022-10-30T18:34:31.885Z,16.33
2022-10-30T18:36:58.251Z,16.23
2022-10-30T18:39:24.657Z,16.21
2022-10-30T18:41:51.152Z,16.20
2022-10-30T18:44:18.421Z,16.19
2022-10-30T18:46:44.893Z,16.21
2022-10-30T18:49:11.307Z,16.16
2022-10-30T18:51:37.957Z,16.15
2022-10-30T18:54:07.825Z,16.14
2022-10-30T18:56:34.202Z,16.10
2022-10-30T18:59:02.540Z,16.06
2022-10-30T19:01:32.894Z,16.06
2022-10-30T19:04:04.188Z,16.04
2022-10-30T19:06:32.714Z,16.02
2022-10-30T19:08:59.062Z,16.00
2022-10-30T19:11:26.736Z,15.99
2022-10-30T19:13:54.320Z,15.99
2022-10-30T19:16:21.226Z,15.97
2022-10-30T19:18:48.395Z,15.94
2022-10-30T19:21:16.457Z,15.93
2022-10-30T19:23:42.884Z,15.92
2022-10-30T19:26:09.292Z,15.90
2022-10-30T19:28:35.714Z,15.90
2022-10-30T19:31:02.099Z,15.88
2022-10-30T19:33:28.439Z,15.88
2022-10-30T19:36:00.856Z,15.86
2022-10-30T19:38:27.901Z,15.85
2022-10-30T19:40:54.450Z,15.82
2022-10-30T19:43:20.825Z,15.81
2022-10-30T19:45:49.059Z,15.84
2022-10-30T19:48:24.883Z,15.80
2022-10-30T19:51:00.917Z,15.76
2022-10-30T19:53:27.267Z,15.72
2022-10-30T19:55:53.989Z,15.70
2022-10-30T19:58:23.580Z,15.69
2022-10-30T20:00:54.216Z,15.66
2022-10-30T20:03:20.845Z,15.65
2022-10-30T20:05:50.278Z,15.63
2022-10-30T20:08:16.655Z,15.62
2022-10-30T20:10:44.193Z,15.59
2022-10-30T20:13:11.455Z,15.59
2022-10-30T20:15:38.140Z,15.57
2022-10-30T20:18:11.594Z,15.55
2022-10-30T20:20:38.582Z,15.50
2022-10-30T20:23:04.942Z,15.49
2022-10-30T20:25:31.302Z,15.46
2022-10-30T20:28:02.383Z,15.45
2022-10-30T20:30:32.279Z,15.42
2022-10-30T20:32:58.954Z,15.39
2022-10-30T20:35:25.485Z,15.37
2022-10-30T20:38:02.092Z,15.36
2022-10-30T20:40:29.295Z,15.37
2022-10-30T20:43:02.732Z,15.34
2022-10-30T20:45:29.846Z,15.31
2022-10-30T20:47:56.457Z,15.30
2022-10-30T20:50:23.033Z,15.27
2022-10-30T20:52:49.514Z,15.25
2022-10-30T20:55:16.051Z,15.22
2022-10-30T20:57:42.598Z,15.21
2022-10-30T21:00:09.370Z,15.19
2022-10-30T21:02:35.865Z,15.16
2022-10-30T21:05:17.351Z,15.14
2022-10-30T21:07:50.598Z,15.10
2022-10-30T21:10:17.014Z,15.10
2022-10-30T21:12:43.403Z,15.06
2022-10-30T21:15:09.850Z,15.06
2022-10-30T21:17:36.291Z,15.05
2022-10-30T21:20:03.175Z,15.03
2022-10-30T21:22:29.576Z,15.02
2022-10-30T21:24:55.934Z,15.00
2022-10-30T21:27:22.636Z,14.99
2022-10-30T21:29:49.029Z,14.96
2022-10-30T21:32:15.711Z,14.94
2022-10-30T21:34:42.347Z,14.95
2022-10-30T21:37:08.732Z,14.92
2022-10-30T21:39:35.133Z,14.91
2022-10-30T21:42:01.538Z,14.88
2022-10-30T21:44:27.908Z,14.85
2022-10-30T21:46:54.279Z,14.85
2022-10-30T21:49:20.726Z,14.83
2022-10-30T21:51:49.536Z,14.81
2022-10-30T21:54:16.816Z,14.82
2022-10-30T21:56:43.420Z,14.81
2022-10-30T21:59:10.287Z,14.84
2022-10-30T22:01:38.141Z,14.80
2022-10-30T22:04:06.431Z,14.81
2022-10-30T22:06:32.873Z,14.80
2022-10-30T22:08:59.386Z,14.76
2022-10-30T22:11:27.587Z,14.72
2022-10-30T22:13:54.801Z,14.71
2022-10-30T22:16:21.556Z,14.71
2022-10-30T22:18:47.975Z,14.69
2022-10-30T22:21:14.581Z,14.69
2022-10-30T22:23:41.444Z,14.67
2022-10-30T22:26:10.480Z,14.67
2022-10-30T22:28:36.850Z,14.67
2022-10-30T22:31:03.498Z,14.63
2022-10-30T22:33:30.393Z,14.66
2022-10-30T22:35:56.947Z,14.65
2022-10-30T22:38:23.384Z,14.64
2022-10-30T22:40:49.754Z,14.63
2022-10-30T22:45:52.763Z,14.61
2022-10-30T22:48:19.126Z,14.53
2022-10-30T22:50:45.474Z,14.55
2022-10-30T22:53:11.829Z,14.57
2022-10-30T22:55:38.162Z,14.58
2022-10-30T22:58:04.653Z,14.57
2022-10-30T23:00:31.073Z,14.57
2022-10-30T23:02:57.831Z,14.57
2022-10-30T23:05:24.425Z,14.59
2022-10-30T23:07:51.516Z,14.59
2022-10-30T23:10:17.859Z,14.55
2022-10-30T23:12:44.226Z,14.55
2022-10-30T23:15:10.844Z,14.57
2022-10-30T23:17:37.206Z,14.57
2022-10-30T23:20:04.989Z,14.57
2022-10-30T23:22:31.357Z,14.55
2022-10-30T23:24:57.716Z,14.54
2022-10-30T23:27:24.118Z,14.53
2022-10-30T23:29:50.484Z,14.52
2022-10-30T23:32:16.854Z,14.52
2022-10-30T23:34:43.238Z,14.54
2022-10-30T23:37:09.655Z,14.50
2022-10-30T23:39:36.010Z,14.50
2022-10-30T23:42:02.370Z,14.49
2022-10-30T23:44:28.731Z,14.49
2022-10-30T23:46:55.114Z,14.48
2022-10-30T23:49:21.473Z,14.50
2022-10-30T23:51:47.822Z,14.47
2022-10-30T23:54:14.214Z,14.46
2022-10-30T23:56:40.598Z,14.44
2022-10-30T23:59:06.947Z,14.44
